createdAt,value
2018-04-15T00:00:45.018Z,6.12
2018-04-15T00:01:44.994Z,6.09
2018-04-15T00:02:44.911Z,5.96
2018-04-15T00:03:44.966Z,5.96
2018-04-15T00:04:44.872Z,5.86
2018-04-15T00:05:44.911Z,5.83
2018-04-15T00:06:44.787Z,5.78
2018-04-15T00:07:44.755Z,5.79
2018-04-15T00:08:44.713Z,5.91
2018-04-15T00:09:44.683Z,5.85
2018-04-15T00:10:44.627Z,5.83
2018-04-15T00:11:44.609Z,5.86
2018-04-15T00:12:44.538Z,5.89
2018-04-15T00:13:44.494Z,5.86
2018-04-15T00:14:44.457Z,5.74
2018-04-15T00:15:44.416Z,5.75
2018-04-15T00:16:44.386Z,5.90
2018-04-15T00:17:44.311Z,5.79
2018-04-15T00:18:44.291Z,5.76
2018-04-15T00:19:44.239Z,5.64
2018-04-15T00:20:44.203Z,5.54
2018-04-15T00:21:44.188Z,5.43
2018-04-15T00:22:44.147Z,5.42
2018-04-15T00:23:44.077Z,5.43
2018-04-15T00:24:44.074Z,5.36
2018-04-15T00:25:43.998Z,5.38
2018-04-15T00:26:44.001Z,5.45
2018-04-15T00:27:43.936Z,5.38
2018-04-15T00:28:43.936Z,5.43
2018-04-15T00:29:43.872Z,5.28
2018-04-15T00:30:43.846Z,5.51
2018-04-15T00:31:43.767Z,5.72
2018-04-15T00:32:43.728Z,5.89
2018-04-15T00:33:43.687Z,5.86
2018-04-15T00:34:43.683Z,6.03
2018-04-15T00:35:43.669Z,6.14
2018-04-15T00:36:43.595Z,6.18
2018-04-15T00:37:43.532Z,6.14
2018-04-15T00:38:43.482Z,6.06
2018-04-15T00:39:43.471Z,6.09
2018-04-15T00:40:43.424Z,6.12
2018-04-15T00:41:43.359Z,6.15
2018-04-15T00:42:43.331Z,6.14
2018-04-15T00:43:43.291Z,6.14
2018-04-15T00:44:43.261Z,6.14
2018-04-15T00:45:43.227Z,6.14
2018-04-15T00:46:43.177Z,6.06
2018-04-15T00:47:43.098Z,6.01
2018-04-15T00:48:43.069Z,6.12
2018-04-15T00:49:43.066Z,6.08
2018-04-15T00:50:42.998Z,6.12
2018-04-15T00:51:42.975Z,6.09
2018-04-15T00:52:42.936Z,6.01
2018-04-15T00:53:42.866Z,5.90
2018-04-15T00:54:42.833Z,6.04
2018-04-15T00:55:42.820Z,6.01
2018-04-15T00:56:42.776Z,5.97
2018-04-15T00:57:42.842Z,5.96
2018-04-15T00:58:42.698Z,5.99
2018-04-15T00:59:42.646Z,5.94
2018-04-15T01:00:42.574Z,6.03
2018-04-15T01:01:42.532Z,6.11
2018-04-15T01:02:42.507Z,6.21
2018-04-15T01:03:42.494Z,6.11
2018-04-15T01:04:42.441Z,5.85
2018-04-15T01:05:42.391Z,5.74
2018-04-15T01:06:42.337Z,5.65
2018-04-15T01:07:42.311Z,5.54
2018-04-15T01:08:42.252Z,5.56
2018-04-15T01:09:42.249Z,5.65
2018-04-15T01:10:42.206Z,5.63
2018-04-15T01:11:42.159Z,5.60
2018-04-15T01:12:42.146Z,5.51
2018-04-15T01:13:42.093Z,5.65
2018-04-15T01:14:42.026Z,5.91
2018-04-15T01:15:42.019Z,5.93
2018-04-15T01:16:41.950Z,5.82
2018-04-15T01:17:41.902Z,5.81
2018-04-15T01:18:41.897Z,5.64
2018-04-15T01:19:41.810Z,5.56
2018-04-15T01:20:41.791Z,5.58
2018-04-15T01:21:41.772Z,5.49
2018-04-15T01:22:41.748Z,5.35
2018-04-15T01:23:41.679Z,5.33
2018-04-15T01:24:41.620Z,5.27
2018-04-15T01:25:41.582Z,5.24
2018-04-15T01:26:41.581Z,5.18
2018-04-15T01:27:41.525Z,5.15
2018-04-15T01:28:41.499Z,5.13
2018-04-15T01:29:41.429Z,5.21
2018-04-15T01:30:41.391Z,5.27
2018-04-15T01:31:41.344Z,5.10
2018-04-15T01:32:41.297Z,5.09
2018-04-15T01:33:41.264Z,5.07
2018-04-15T01:34:41.304Z,5.10
2018-04-15T01:35:41.174Z,5.15
2018-04-15T01:36:41.120Z,5.04
2018-04-15T01:37:41.123Z,5.02
2018-04-15T01:38:41.041Z,4.88
2018-04-15T01:39:41.037Z,4.92
2018-04-15T01:40:40.999Z,4.82
2018-04-15T01:41:40.954Z,4.72
2018-04-15T01:42:40.897Z,4.73
2018-04-15T01:43:40.858Z,4.94
2018-04-15T01:44:40.816Z,4.99
2018-04-15T01:45:40.770Z,5.17
2018-04-15T01:46:40.742Z,5.13
2018-04-15T01:47:40.677Z,5.04
2018-04-15T01:48:40.666Z,4.96
2018-04-15T01:49:40.595Z,4.91
2018-04-15T01:50:40.593Z,4.92
2018-04-15T01:51:40.507Z,5.21
2018-04-15T01:52:40.527Z,5.46
2018-04-15T01:53:40.442Z,5.35
2018-04-15T01:54:40.427Z,5.45
2018-04-15T01:55:40.383Z,5.42
2018-04-15T01:56:40.330Z,5.54
2018-04-15T01:57:40.329Z,5.57
2018-04-15T01:58:40.253Z,5.57
2018-04-15T01:59:40.213Z,5.48
2018-04-15T02:00:40.208Z,5.48
2018-04-15T02:01:40.154Z,5.30
2018-04-15T02:02:40.066Z,5.15
2018-04-15T02:03:40.076Z,5.12
2018-04-15T02:04:40.107Z,5.20
2018-04-15T02:05:39.974Z,5.27
2018-04-15T02:06:39.952Z,5.39
2018-04-15T02:07:39.893Z,5.43
2018-04-15T02:08:39.869Z,5.35
2018-04-15T02:09:39.821Z,5.45
2018-04-15T02:10:39.755Z,5.33
2018-04-15T02:11:39.715Z,5.38
2018-04-15T02:12:39.699Z,5.30
2018-04-15T02:13:39.704Z,5.31
2018-04-15T02:14:39.582Z,5.27
2018-04-15T02:15:39.612Z,5.40
2018-04-15T02:16:39.512Z,5.31
2018-04-15T02:17:39.448Z,5.42
2018-04-15T02:18:39.460Z,5.48
2018-04-15T02:19:39.367Z,5.45
2018-04-15T02:20:39.386Z,5.48
2018-04-15T02:21:39.297Z,5.39
2018-04-15T02:22:39.284Z,5.24
2018-04-15T02:23:39.236Z,5.10
2018-04-15T02:24:39.226Z,5.02
2018-04-15T02:25:39.150Z,5.02
2018-04-15T02:26:39.116Z,5.13
2018-04-15T02:27:39.053Z,5.15
2018-04-15T02:28:39.028Z,5.21
2018-04-15T02:29:38.986Z,5.24
2018-04-15T02:30:38.939Z,5.31
2018-04-15T02:31:38.879Z,5.31
2018-04-15T02:32:38.907Z,5.22
2018-04-15T02:33:38.808Z,5.18
2018-04-15T02:34:38.785Z,5.12
2018-04-15T02:35:38.756Z,5.10
2018-04-15T02:36:38.688Z,5.13
2018-04-15T02:37:38.659Z,5.10
2018-04-15T02:38:38.669Z,5.09
2018-04-15T02:39:38.596Z,5.10
2018-04-15T02:40:38.531Z,5.07
2018-04-15T02:41:38.546Z,5.13
2018-04-15T02:42:38.443Z,5.03
2018-04-15T02:43:38.438Z,5.02
2018-04-15T02:44:38.348Z,5.07
2018-04-15T02:45:38.341Z,5.10
2018-04-15T02:46:38.299Z,5.06
2018-04-15T02:47:38.244Z,5.04
2018-04-15T02:48:38.224Z,4.97
2018-04-15T02:49:38.143Z,4.88
2018-04-15T02:50:38.131Z,4.88
2018-04-15T02:51:38.077Z,4.70
2018-04-15T02:52:38.044Z,4.84
2018-04-15T02:53:37.992Z,4.78
2018-04-15T02:54:37.952Z,4.86
2018-04-15T02:55:37.909Z,4.89
2018-04-15T02:56:37.874Z,4.77
2018-04-15T02:57:37.829Z,4.59
2018-04-15T02:58:37.764Z,4.63
2018-04-15T02:59:37.758Z,4.73
2018-04-15T03:00:37.722Z,4.80
2018-04-15T03:01:37.637Z,4.84
2018-04-15T03:02:37.656Z,4.67
2018-04-15T03:03:37.553Z,4.77
2018-04-15T03:04:37.542Z,4.60
2018-04-15T03:05:37.513Z,4.54
2018-04-15T03:06:37.483Z,4.42
2018-04-15T03:07:37.457Z,4.34
2018-04-15T03:08:37.375Z,4.50
2018-04-15T03:09:37.331Z,4.60
2018-04-15T03:10:37.314Z,4.66
2018-04-15T03:11:37.266Z,4.92
2018-04-15T03:12:37.249Z,4.82
2018-04-15T03:13:37.186Z,4.84
2018-04-15T03:14:37.162Z,4.77
2018-04-15T03:15:37.155Z,4.70
2018-04-15T03:16:37.048Z,4.72
2018-04-15T03:17:36.982Z,4.59
2018-04-15T03:18:36.936Z,4.51
2018-04-15T03:19:36.894Z,4.44
2018-04-15T03:20:36.861Z,4.44
2018-04-15T03:21:36.835Z,4.30
2018-04-15T03:22:36.838Z,4.23
2018-04-15T03:23:36.749Z,4.14
2018-04-15T03:24:36.723Z,4.05
2018-04-15T03:25:36.683Z,4.12
2018-04-15T03:26:36.628Z,4.27
2018-04-15T03:27:36.596Z,4.40
2018-04-15T03:28:36.540Z,4.51
2018-04-15T03:29:36.506Z,4.54
2018-04-15T03:30:36.479Z,4.62
2018-04-15T03:31:36.420Z,4.62
2018-04-15T03:32:36.375Z,4.59
2018-04-15T03:33:36.348Z,4.41
2018-04-15T03:34:36.310Z,4.40
2018-04-15T03:35:36.253Z,4.33
2018-04-15T03:36:36.220Z,4.15
2018-04-15T03:37:36.181Z,4.41
2018-04-15T03:38:36.128Z,4.65
2018-04-15T03:39:36.086Z,4.72
2018-04-15T03:40:36.045Z,4.72
2018-04-15T03:41:36.029Z,4.63
2018-04-15T03:42:35.962Z,4.73
2018-04-15T03:43:35.906Z,4.85
2018-04-15T03:44:35.881Z,4.86
2018-04-15T03:45:35.843Z,4.77
2018-04-15T03:46:35.798Z,4.72
2018-04-15T03:47:35.756Z,4.70
2018-04-15T03:48:35.717Z,4.75
2018-04-15T03:49:35.658Z,4.69
2018-04-15T03:50:35.682Z,4.65
2018-04-15T03:51:35.610Z,4.65
2018-04-15T03:52:35.544Z,4.47
2018-04-15T03:53:35.496Z,4.32
2018-04-15T03:54:35.486Z,4.36
2018-04-15T03:55:35.420Z,4.41
2018-04-15T03:56:35.397Z,4.48
2018-04-15T03:57:35.344Z,4.60
2018-04-15T03:58:35.335Z,4.48
2018-04-15T03:59:35.250Z,4.54
2018-04-15T04:00:35.215Z,4.58
2018-04-15T04:01:35.231Z,4.55
2018-04-15T04:02:35.135Z,4.65
2018-04-15T04:03:35.125Z,4.70
2018-04-15T04:04:35.065Z,4.66
2018-04-15T04:05:35.024Z,4.69
2018-04-15T04:06:35.010Z,4.60
2018-04-15T04:07:34.928Z,4.42
2018-04-15T04:08:34.867Z,4.29
2018-04-15T04:09:34.880Z,4.32
2018-04-15T04:10:34.791Z,4.41
2018-04-15T04:11:34.767Z,4.58
2018-04-15T04:12:34.721Z,4.66
2018-04-15T04:13:34.737Z,4.70
2018-04-15T04:14:34.628Z,4.73
2018-04-15T04:15:34.619Z,4.86
2018-04-15T04:16:34.557Z,4.78
2018-04-15T04:17:34.548Z,4.66
2018-04-15T04:18:34.513Z,4.55
2018-04-15T04:19:34.446Z,4.50
2018-04-15T04:20:34.416Z,4.58
2018-04-15T04:21:34.340Z,4.54
2018-04-15T04:22:34.299Z,4.54
2018-04-15T04:23:34.242Z,4.59
2018-04-15T04:24:34.215Z,4.62
2018-04-15T04:25:34.166Z,4.67
2018-04-15T04:26:34.134Z,4.60
2018-04-15T04:27:34.075Z,4.65
2018-04-15T04:28:34.041Z,4.60
2018-04-15T04:29:34.042Z,4.66
2018-04-15T04:30:34.016Z,4.63
2018-04-15T04:31:33.923Z,4.59
2018-04-15T04:32:33.884Z,4.41
2018-04-15T04:33:33.837Z,4.37
2018-04-15T04:34:33.805Z,4.30
2018-04-15T04:35:33.765Z,4.26
2018-04-15T04:36:33.753Z,4.41
2018-04-15T04:37:33.684Z,4.40
2018-04-15T04:38:33.841Z,4.47
2018-04-15T04:39:33.611Z,4.44
2018-04-15T04:40:33.552Z,4.37
2018-04-15T04:41:33.493Z,4.29
2018-04-15T04:42:33.493Z,4.16
2018-04-15T04:43:33.462Z,4.11
2018-04-15T04:44:33.408Z,4.09
2018-04-15T04:45:33.365Z,4.05
2018-04-15T04:46:33.334Z,4.05
2018-04-15T04:47:33.252Z,4.15
2018-04-15T04:48:33.198Z,4.18
2018-04-15T04:49:33.177Z,4.42
2018-04-15T04:50:33.154Z,4.48
2018-04-15T04:51:33.096Z,4.58
2018-04-15T04:52:33.054Z,4.63
2018-04-15T04:53:33.026Z,4.75
2018-04-15T04:54:32.971Z,4.73
2018-04-15T04:55:32.924Z,4.72
2018-04-15T04:56:32.895Z,4.72
2018-04-15T04:57:32.844Z,4.72
2018-04-15T04:58:32.818Z,4.86
2018-04-15T04:59:32.755Z,4.97
2018-04-15T05:00:32.722Z,4.92
2018-04-15T05:01:32.702Z,4.94
2018-04-15T05:02:32.628Z,4.91
2018-04-15T05:03:32.573Z,4.96
2018-04-15T05:04:32.575Z,5.04
2018-04-15T05:05:32.510Z,4.92
2018-04-15T05:06:32.479Z,5.03
2018-04-15T05:07:32.429Z,5.02
2018-04-15T05:08:32.403Z,5.12
2018-04-15T05:09:32.362Z,5.21
2018-04-15T05:10:32.344Z,5.33
2018-04-15T05:11:32.279Z,5.38
2018-04-15T05:12:32.219Z,5.39
2018-04-15T05:13:32.193Z,5.51
2018-04-15T05:14:32.124Z,5.58
2018-04-15T05:15:32.083Z,5.61
2018-04-15T05:16:32.053Z,5.74
2018-04-15T05:17:32.014Z,5.74
2018-04-15T05:18:31.967Z,5.83
2018-04-15T05:19:32.021Z,5.94
2018-04-15T05:20:31.907Z,5.85
2018-04-15T05:21:31.869Z,5.86
2018-04-15T05:22:31.866Z,5.97
2018-04-15T05:23:31.772Z,6.09
2018-04-15T05:24:31.765Z,6.19
2018-04-15T05:25:31.713Z,6.30
2018-04-15T05:26:31.649Z,6.34
2018-04-15T05:27:31.624Z,6.22
2018-04-15T05:28:31.563Z,6.19
2018-04-15T05:29:31.513Z,6.28
2018-04-15T05:30:31.517Z,6.25
2018-04-15T05:31:31.445Z,6.48
2018-04-15T05:32:31.410Z,6.43
2018-04-15T05:33:31.369Z,6.48
2018-04-15T05:34:31.355Z,6.46
2018-04-15T05:35:31.322Z,6.40
2018-04-15T05:36:31.254Z,6.40
2018-04-15T05:37:31.275Z,6.48
2018-04-15T05:38:31.185Z,6.49
2018-04-15T05:39:31.159Z,6.66
2018-04-15T05:40:31.200Z,6.70
2018-04-15T05:41:31.055Z,6.81
2018-04-15T05:42:31.008Z,6.84
2018-04-15T05:43:30.975Z,6.89
2018-04-15T05:44:30.922Z,6.87
2018-04-15T05:45:30.911Z,6.88
2018-04-15T05:46:30.866Z,6.88
2018-04-15T05:47:30.842Z,7.07
2018-04-15T05:48:30.770Z,7.15
2018-04-15T05:49:30.748Z,7.28
2018-04-15T05:50:30.727Z,7.39
2018-04-15T05:51:30.660Z,7.55
2018-04-15T05:52:30.610Z,7.52
2018-04-15T05:53:30.597Z,7.61
2018-04-15T05:54:31.019Z,7.64
2018-04-15T05:55:30.499Z,7.75
2018-04-15T05:56:30.499Z,7.86
2018-04-15T05:57:30.448Z,7.87
2018-04-15T05:58:30.370Z,7.98
2018-04-15T05:59:30.404Z,8.07
2018-04-15T06:00:30.300Z,8.08
2018-04-15T06:01:30.287Z,8.16
2018-04-15T06:02:30.217Z,8.18
2018-04-15T06:03:30.180Z,7.93
2018-04-15T06:04:30.136Z,7.80
2018-04-15T06:05:30.125Z,7.74
2018-04-15T06:06:30.062Z,7.75
2018-04-15T06:07:30.053Z,7.50
2018-04-15T06:08:30.002Z,7.72
2018-04-15T06:09:29.963Z,7.74
2018-04-15T06:10:29.907Z,7.74
2018-04-15T06:11:29.868Z,7.69
2018-04-15T06:12:29.836Z,7.67
2018-04-15T06:13:29.783Z,7.80
2018-04-15T06:14:29.798Z,8.00
2018-04-15T06:15:29.704Z,8.02
2018-04-15T06:16:29.699Z,8.10
2018-04-15T06:17:29.701Z,8.01
2018-04-15T06:18:29.586Z,7.98
2018-04-15T06:19:29.562Z,8.11
2018-04-15T06:20:29.521Z,8.28
2018-04-15T06:21:29.501Z,8.45
2018-04-15T06:22:29.460Z,8.50
2018-04-15T06:23:29.415Z,8.48
2018-04-15T06:24:29.378Z,8.61
2018-04-15T06:25:29.330Z,8.86
2018-04-15T06:26:29.302Z,8.94
2018-04-15T06:27:29.262Z,8.92
2018-04-15T06:28:29.230Z,8.96
2018-04-15T06:29:29.177Z,9.11
2018-04-15T06:30:29.155Z,9.21
2018-04-15T06:31:29.107Z,9.24
2018-04-15T06:32:29.098Z,9.20
2018-04-15T06:33:29.075Z,9.23
2018-04-15T06:34:29.209Z,9.35
2018-04-15T06:35:28.961Z,9.50
2018-04-15T06:36:28.919Z,9.60
2018-04-15T06:37:28.895Z,9.75
2018-04-15T06:38:28.847Z,9.97
2018-04-15T06:39:28.801Z,10.12
2018-04-15T06:40:28.759Z,10.32
2018-04-15T06:41:28.743Z,10.09
2018-04-15T06:42:28.716Z,10.36
2018-04-15T06:43:28.657Z,10.55
2018-04-15T06:44:28.633Z,10.67
2018-04-15T06:45:28.580Z,10.70
2018-04-15T06:46:28.564Z,10.84
2018-04-15T06:47:28.519Z,10.84
2018-04-15T06:48:28.474Z,10.89
2018-04-15T06:49:28.462Z,11.00
2018-04-15T06:50:28.418Z,11.11
2018-04-15T06:51:28.383Z,11.32
2018-04-15T06:52:28.341Z,11.62
2018-04-15T06:53:28.284Z,11.88
2018-04-15T06:54:28.264Z,11.90
2018-04-15T06:55:28.203Z,11.95
2018-04-15T06:56:28.279Z,12.59
2018-04-15T06:57:28.156Z,13.48
2018-04-15T06:58:28.166Z,14.40
2018-04-15T06:59:28.089Z,14.81
2018-04-15T07:00:28.069Z,14.73
2018-04-15T07:01:28.042Z,15.65
2018-04-15T07:02:27.972Z,16.24
2018-04-15T07:03:27.985Z,15.69
2018-04-15T07:04:27.886Z,14.95
2018-04-15T07:05:27.880Z,14.45
2018-04-15T07:06:27.839Z,13.91
2018-04-15T07:07:27.827Z,14.58
2018-04-15T07:08:27.776Z,13.36
2018-04-15T07:09:27.728Z,13.07
2018-04-15T07:10:27.690Z,12.86
2018-04-15T07:11:27.666Z,14.00
2018-04-15T07:12:27.639Z,15.31
2018-04-15T07:13:27.620Z,16.48
2018-04-15T07:14:27.585Z,16.81
2018-04-15T07:15:27.556Z,16.64
2018-04-15T07:16:27.542Z,16.42
2018-04-15T07:17:27.511Z,16.68
2018-04-15T07:18:27.476Z,16.91
2018-04-15T07:19:27.425Z,17.22
2018-04-15T07:20:27.402Z,17.46
2018-04-15T07:21:27.365Z,17.59
2018-04-15T07:22:27.339Z,16.63
2018-04-15T07:23:27.309Z,16.66
2018-04-15T07:24:27.282Z,16.01
2018-04-15T07:25:27.242Z,16.43
2018-04-15T07:26:27.227Z,17.08
2018-04-15T07:27:27.202Z,17.16
2018-04-15T07:28:27.168Z,17.30
2018-04-15T07:29:27.141Z,16.75
2018-04-15T07:30:27.149Z,16.82
2018-04-15T07:31:27.079Z,16.53
2018-04-15T07:32:27.059Z,16.75
2018-04-15T07:33:27.040Z,15.53
2018-04-15T07:34:26.999Z,15.54
2018-04-15T07:35:26.988Z,15.56
2018-04-15T07:36:26.957Z,16.02
2018-04-15T07:37:26.919Z,16.83
2018-04-15T07:38:26.895Z,17.38
2018-04-15T07:39:26.866Z,17.07
2018-04-15T07:40:26.856Z,16.98
2018-04-15T07:41:26.838Z,16.97
2018-04-15T07:42:26.801Z,17.19
2018-04-15T07:43:26.768Z,16.23
2018-04-15T07:44:26.805Z,16.71
2018-04-15T07:45:26.725Z,16.52
2018-04-15T07:46:26.783Z,16.56
2018-04-15T07:47:26.671Z,17.64
2018-04-15T07:48:26.647Z,17.72
2018-04-15T07:49:26.629Z,18.18
2018-04-15T07:50:26.677Z,17.93
2018-04-15T07:51:26.650Z,18.58
2018-04-15T07:52:26.551Z,18.63
2018-04-15T07:53:26.532Z,18.20
2018-04-15T07:54:26.536Z,19.50
2018-04-15T07:55:26.501Z,20.47
2018-04-15T07:56:26.475Z,19.95
2018-04-15T07:57:26.969Z,18.62
2018-04-15T07:58:26.438Z,20.13
2018-04-15T07:59:26.398Z,21.06
2018-04-15T08:00:26.373Z,21.12
2018-04-15T08:01:26.386Z,20.99
2018-04-15T08:02:26.343Z,20.54
2018-04-15T08:03:26.296Z,20.73
2018-04-15T08:04:26.282Z,21.24
2018-04-15T08:05:26.267Z,22.07
2018-04-15T08:06:26.238Z,22.28
2018-04-15T08:07:26.228Z,21.92
2018-04-15T08:08:26.198Z,20.57
2018-04-15T08:09:26.167Z,21.17
2018-04-15T08:10:26.274Z,21.86
2018-04-15T08:11:26.130Z,22.22
2018-04-15T08:12:26.138Z,22.43
2018-04-15T08:13:26.139Z,22.86
2018-04-15T08:14:26.060Z,22.58
2018-04-15T08:15:26.050Z,21.49
2018-04-15T08:16:26.024Z,21.29
2018-04-15T08:17:26.045Z,21.61
2018-04-15T08:18:25.978Z,21.27
2018-04-15T08:19:26.008Z,21.54
2018-04-15T08:20:25.963Z,21.16
2018-04-15T08:21:25.946Z,21.22
2018-04-15T08:22:25.949Z,20.82
2018-04-15T08:23:25.889Z,19.62
2018-04-15T08:24:25.898Z,20.47
2018-04-15T08:25:25.846Z,20.10
2018-04-15T08:26:25.838Z,20.11
2018-04-15T08:27:25.836Z,20.10
2018-04-15T08:28:25.782Z,20.52
2018-04-15T08:29:25.754Z,20.80
2018-04-15T08:30:25.734Z,20.76
2018-04-15T08:31:25.716Z,21.04
2018-04-15T08:32:25.703Z,21.56
2018-04-15T08:33:25.693Z,22.06
2018-04-15T08:34:25.668Z,22.35
2018-04-15T08:35:25.631Z,22.20
2018-04-15T08:36:25.644Z,22.37
2018-04-15T08:37:25.613Z,22.97
2018-04-15T08:38:25.573Z,22.02
2018-04-15T08:39:25.608Z,21.01
2018-04-15T08:40:25.555Z,20.99
2018-04-15T08:41:25.507Z,21.40
2018-04-15T08:42:25.493Z,21.28
2018-04-15T08:43:25.476Z,21.50
2018-04-15T08:44:25.437Z,22.05
2018-04-15T08:45:25.430Z,22.45
2018-04-15T08:46:25.425Z,21.99
2018-04-15T08:47:25.370Z,22.03
2018-04-15T08:48:25.422Z,21.17
2018-04-15T08:49:25.383Z,20.42
2018-04-15T08:50:25.435Z,20.62
2018-04-15T08:51:25.294Z,20.79
2018-04-15T08:52:25.320Z,20.55
2018-04-15T08:53:25.252Z,20.11
2018-04-15T08:54:25.258Z,19.86
2018-04-15T08:55:25.203Z,20.05
2018-04-15T08:56:25.187Z,20.11
2018-04-15T08:57:25.171Z,20.31
2018-04-15T08:58:25.178Z,20.11
2018-04-15T08:59:25.119Z,20.13
2018-04-15T09:00:25.108Z,20.51
2018-04-15T09:01:25.073Z,21.04
2018-04-15T09:02:25.053Z,21.49
2018-04-15T09:03:25.043Z,22.36
2018-04-15T09:04:25.036Z,22.86
2018-04-15T09:05:24.994Z,23.02
2018-04-15T09:06:24.960Z,23.19
2018-04-15T09:07:24.920Z,23.63
2018-04-15T09:08:24.933Z,23.76
2018-04-15T09:09:24.887Z,24.42
2018-04-15T09:10:24.878Z,24.31
2018-04-15T09:11:24.856Z,24.30
2018-04-15T09:12:24.812Z,23.83
2018-04-15T09:13:24.799Z,23.66
2018-04-15T09:14:24.767Z,24.12
2018-04-15T09:15:24.750Z,23.66
2018-04-15T09:16:24.754Z,22.73
2018-04-15T09:17:24.715Z,23.10
2018-04-15T09:18:24.714Z,23.66
2018-04-15T09:19:24.682Z,24.13
2018-04-15T09:20:24.667Z,23.94
2018-04-15T09:21:24.617Z,22.36
2018-04-15T09:22:24.615Z,22.24
2018-04-15T09:23:24.614Z,22.10
2018-04-15T09:24:24.575Z,22.25
2018-04-15T09:25:24.537Z,22.00
2018-04-15T09:26:24.550Z,22.68
2018-04-15T09:27:24.487Z,22.67
2018-04-15T09:28:24.462Z,22.39
2018-04-15T09:29:24.438Z,22.30
2018-04-15T09:30:24.427Z,22.61
2018-04-15T09:31:24.435Z,22.76
2018-04-15T09:32:24.402Z,22.94
2018-04-15T09:33:24.358Z,23.58
2018-04-15T09:34:24.354Z,23.31
2018-04-15T09:35:24.324Z,23.51
2018-04-15T09:36:24.289Z,24.35
2018-04-15T09:37:24.259Z,25.43
2018-04-15T09:38:24.246Z,25.46
2018-04-15T09:39:24.249Z,25.50
2018-04-15T09:40:24.207Z,25.54
2018-04-15T09:41:24.197Z,26.26
2018-04-15T09:42:24.186Z,26.58
2018-04-15T09:43:24.175Z,24.71
2018-04-15T09:44:24.140Z,23.33
2018-04-15T09:45:24.101Z,22.43
2018-04-15T09:46:24.154Z,22.91
2018-04-15T09:47:24.090Z,24.20
2018-04-15T09:48:24.049Z,23.79
2018-04-15T09:49:24.039Z,22.25
2018-04-15T09:50:24.020Z,21.44
2018-04-15T09:51:24.002Z,22.94
2018-04-15T09:52:23.971Z,23.53
2018-04-15T09:53:23.997Z,22.85
2018-04-15T09:54:23.943Z,22.98
2018-04-15T09:55:23.911Z,22.98
2018-04-15T09:56:23.907Z,23.83
2018-04-15T09:57:23.916Z,24.67
2018-04-15T09:58:25.709Z,23.58
2018-04-15T09:59:23.836Z,24.68
2018-04-15T10:00:23.832Z,24.50
2018-04-15T10:01:23.811Z,25.02
2018-04-15T10:02:23.788Z,25.51
2018-04-15T10:03:23.786Z,25.20
2018-04-15T10:04:23.751Z,24.91
2018-04-15T10:05:23.755Z,24.16
2018-04-15T10:06:23.704Z,24.47
2018-04-15T10:07:23.698Z,23.63
2018-04-15T10:08:23.666Z,22.73
2018-04-15T10:09:23.666Z,23.33
2018-04-15T10:10:23.646Z,24.10
2018-04-15T10:11:23.606Z,24.52
2018-04-15T10:12:23.623Z,24.65
2018-04-15T10:13:23.612Z,23.48
2018-04-15T10:14:23.567Z,23.12
2018-04-15T10:15:23.581Z,23.16
2018-04-15T10:16:23.533Z,23.07
2018-04-15T10:17:23.507Z,22.95
2018-04-15T10:18:23.500Z,22.67
2018-04-15T10:19:23.445Z,22.45
2018-04-15T10:20:23.435Z,22.10
2018-04-15T10:21:23.437Z,21.84
2018-04-15T10:22:23.384Z,21.56
2018-04-15T10:23:23.355Z,21.68
2018-04-15T10:24:23.361Z,21.59
2018-04-15T10:25:23.361Z,21.82
2018-04-15T10:26:23.292Z,22.42
2018-04-15T10:27:23.313Z,23.22
2018-04-15T10:28:23.258Z,24.06
2018-04-15T10:29:23.265Z,24.46
2018-04-15T10:30:23.218Z,24.16
2018-04-15T10:31:23.213Z,24.43
2018-04-15T10:32:23.191Z,24.30
2018-04-15T10:33:23.186Z,24.73
2018-04-15T10:34:23.132Z,24.27
2018-04-15T10:35:23.117Z,23.84
2018-04-15T10:36:23.112Z,23.20
2018-04-15T10:37:23.108Z,23.35
2018-04-15T10:38:23.073Z,22.76
2018-04-15T10:39:23.029Z,21.90
2018-04-15T10:40:23.008Z,21.27
2018-04-15T10:41:23.047Z,21.58
2018-04-15T10:42:22.981Z,21.46
2018-04-15T10:43:22.950Z,21.49
2018-04-15T10:44:22.917Z,21.82
2018-04-15T10:45:22.927Z,21.83
2018-04-15T10:46:25.022Z,21.77
2018-04-15T10:47:22.861Z,21.74
2018-04-15T10:48:22.827Z,21.99
2018-04-15T10:49:22.838Z,22.62
2018-04-15T10:50:22.840Z,23.25
2018-04-15T10:51:22.785Z,23.07
2018-04-15T10:52:22.778Z,22.83
2018-04-15T10:53:22.738Z,22.92
2018-04-15T10:54:22.713Z,22.54
2018-04-15T10:55:25.234Z,22.05
2018-04-15T10:56:22.712Z,22.45
2018-04-15T10:57:22.660Z,22.79
2018-04-15T10:58:22.625Z,23.09
2018-04-15T10:59:22.627Z,23.31
2018-04-15T11:00:22.569Z,22.92
2018-04-15T11:01:22.541Z,23.02
2018-04-15T11:02:22.549Z,23.35
2018-04-15T11:03:22.516Z,23.60
2018-04-15T11:04:22.476Z,24.28
2018-04-15T11:05:22.460Z,24.81
2018-04-15T11:06:22.436Z,24.87
2018-04-15T11:07:22.433Z,24.88
2018-04-15T11:08:22.393Z,24.67
2018-04-15T11:09:22.379Z,24.81
2018-04-15T11:10:22.333Z,24.53
2018-04-15T11:11:22.347Z,24.13
2018-04-15T11:12:22.367Z,24.55
2018-04-15T11:13:22.261Z,24.55
2018-04-15T11:14:22.270Z,24.73
2018-04-15T11:15:22.228Z,24.84
2018-04-15T11:16:22.226Z,23.78
2018-04-15T11:17:22.182Z,23.32
2018-04-15T11:18:22.193Z,23.46
2018-04-15T11:19:22.164Z,23.05
2018-04-15T11:20:22.129Z,23.79
2018-04-15T11:21:22.088Z,23.13
2018-04-15T11:22:22.073Z,23.17
2018-04-15T11:23:22.047Z,22.95
2018-04-15T11:24:22.024Z,23.05
2018-04-15T11:25:22.041Z,23.10
2018-04-15T11:26:21.988Z,22.64
2018-04-15T11:27:21.990Z,23.48
2018-04-15T11:28:21.935Z,23.01
2018-04-15T11:29:21.938Z,22.65
2018-04-15T11:30:21.923Z,23.01
2018-04-15T11:31:21.874Z,22.97
2018-04-15T11:32:21.857Z,22.98
2018-04-15T11:33:21.843Z,22.97
2018-04-15T11:34:21.848Z,23.35
2018-04-15T11:35:21.797Z,23.22
2018-04-15T11:36:21.769Z,23.22
2018-04-15T11:37:21.761Z,22.97
2018-04-15T11:38:21.737Z,22.92
2018-04-15T11:39:21.741Z,23.13
2018-04-15T11:40:21.689Z,23.95
2018-04-15T11:41:21.680Z,23.90
2018-04-15T11:42:21.676Z,23.53
2018-04-15T11:43:21.653Z,24.03
2018-04-15T11:44:21.593Z,24.52
2018-04-15T11:45:21.600Z,24.60
2018-04-15T11:46:21.554Z,23.65
2018-04-15T11:47:21.537Z,23.50
2018-04-15T11:48:21.525Z,23.46
2018-04-15T11:49:21.499Z,23.43
2018-04-15T11:50:21.506Z,24.05
2018-04-15T11:51:21.474Z,23.88
2018-04-15T11:52:21.451Z,24.32
2018-04-15T11:53:21.411Z,24.71
2018-04-15T11:54:21.386Z,25.05
2018-04-15T11:55:21.413Z,24.90
2018-04-15T11:56:21.363Z,23.75
2018-04-15T11:57:21.360Z,23.68
2018-04-15T11:58:21.312Z,24.52
2018-04-15T11:59:21.337Z,24.67
2018-04-15T12:00:21.256Z,24.61
2018-04-15T12:01:21.390Z,24.71
2018-04-15T12:02:21.246Z,24.02
2018-04-15T12:03:21.207Z,23.84
2018-04-15T12:04:21.216Z,24.15
2018-04-15T12:05:21.244Z,24.02
2018-04-15T12:06:21.136Z,24.50
2018-04-15T12:07:21.138Z,24.50
2018-04-15T12:08:21.119Z,24.40
2018-04-15T12:09:21.097Z,24.43
2018-04-15T12:10:21.062Z,24.77
2018-04-15T12:11:21.033Z,24.81
2018-04-15T12:12:21.028Z,23.90
2018-04-15T12:13:21.005Z,23.43
2018-04-15T12:14:21.008Z,23.73
2018-04-15T12:15:20.971Z,23.79
2018-04-15T12:16:20.928Z,23.36
2018-04-15T12:17:20.934Z,23.68
2018-04-15T12:18:20.903Z,23.39
2018-04-15T12:19:20.884Z,23.25
2018-04-15T12:20:20.833Z,23.16
2018-04-15T12:21:20.878Z,23.16
2018-04-15T12:22:20.829Z,23.48
2018-04-15T12:23:20.828Z,23.85
2018-04-15T12:24:20.775Z,23.39
2018-04-15T12:25:20.731Z,22.46
2018-04-15T12:26:20.765Z,22.90
2018-04-15T12:27:20.708Z,22.94
2018-04-15T12:28:20.695Z,23.60
2018-04-15T12:29:20.667Z,23.25
2018-04-15T12:30:20.645Z,23.10
2018-04-15T12:31:20.641Z,22.68
2018-04-15T12:32:20.641Z,22.42
2018-04-15T12:33:20.590Z,22.62
2018-04-15T12:34:20.569Z,22.73
2018-04-15T12:35:20.550Z,22.98
2018-04-15T12:36:20.518Z,22.98
2018-04-15T12:37:20.482Z,23.27
2018-04-15T12:38:20.472Z,23.46
2018-04-15T12:39:20.507Z,23.60
2018-04-15T12:40:20.454Z,23.57
2018-04-15T12:41:20.517Z,23.40
2018-04-15T12:42:20.396Z,23.27
2018-04-15T12:43:20.402Z,23.36
2018-04-15T12:44:20.356Z,23.09
2018-04-15T12:45:20.334Z,23.10
2018-04-15T12:46:20.295Z,23.31
2018-04-15T12:47:20.372Z,23.48
2018-04-15T12:48:20.269Z,23.12
2018-04-15T12:49:20.254Z,22.68
2018-04-15T12:50:20.230Z,22.62
2018-04-15T12:51:20.220Z,23.32
2018-04-15T12:52:20.191Z,23.66
2018-04-15T12:53:20.184Z,23.10
2018-04-15T12:54:20.119Z,23.55
2018-04-15T12:55:20.113Z,23.50
2018-04-15T12:56:20.084Z,23.02
2018-04-15T12:57:20.072Z,23.32
2018-04-15T12:58:20.084Z,23.01
2018-04-15T12:59:20.038Z,23.36
2018-04-15T13:00:19.992Z,23.69
2018-04-15T13:01:20.011Z,23.66
2018-04-15T13:02:19.965Z,22.70
2018-04-15T13:03:19.940Z,23.07
2018-04-15T13:04:19.935Z,23.53
2018-04-15T13:05:19.928Z,23.80